createdAt,value
2023-01-05T00:01:06.450Z,97915.56
2023-01-05T00:03:33.352Z,97901.81
2023-01-05T00:06:04.148Z,97912.81
2023-01-05T00:08:36.621Z,97910.50
2023-01-05T00:11:46.407Z,97904.19
2023-01-05T00:14:33.680Z,97905.38
2023-01-05T00:17:18.945Z,97890.94
2023-01-05T00:20:04.921Z,97895.63
2023-01-05T00:22:34.824Z,97908.84
2023-01-05T00:25:10.895Z,97894.00
2023-01-05T00:27:39.240Z,97900.28
2023-01-05T00:30:06.213Z,97893.94
2023-01-05T00:32:32.622Z,97883.03
2023-01-05T00:34:59.439Z,97877.09
2023-01-05T00:37:27.797Z,97894.66
2023-01-05T00:39:54.397Z,97877.41
2023-01-05T00:42:21.045Z,97870.34
2023-01-05T00:44:47.415Z,97847.66
2023-01-05T00:47:14.214Z,97850.00
2023-01-05T00:49:40.792Z,97850.75
2023-01-05T00:52:07.789Z,97842.53
2023-01-05T00:54:34.407Z,97848.38
2023-01-05T00:57:01.691Z,97844.88
2023-01-05T00:59:28.024Z,97841.72
2023-01-05T01:01:54.926Z,97842.44
2023-01-05T01:04:21.752Z,97843.69
2023-01-05T01:06:48.110Z,97832.69
2023-01-05T01:09:14.785Z,97843.63
2023-01-05T01:11:41.218Z,97834.22
2023-01-05T01:14:10.161Z,97841.31
2023-01-05T01:16:36.544Z,97840.91
2023-01-05T01:19:05.345Z,97841.31
2023-01-05T01:21:32.004Z,97847.16
2023-01-05T01:23:58.361Z,97845.22
2023-01-05T01:26:24.746Z,97848.75
2023-01-05T01:28:51.065Z,97857.78
2023-01-05T01:31:17.436Z,97848.38
2023-01-05T01:33:43.916Z,97849.63
2023-01-05T01:36:10.504Z,97846.09
2023-01-05T01:38:37.212Z,97835.47
2023-01-05T01:41:03.722Z,97830.88
2023-01-05T01:43:47.910Z,97822.72
2023-01-05T01:46:15.873Z,97824.22
2023-01-05T01:49:04.398Z,97833.56
2023-01-05T01:51:38.505Z,97819.56
2023-01-05T01:54:08.836Z,97822.72
2023-01-05T01:56:39.944Z,97825.88
2023-01-05T01:59:06.775Z,97820.41
2023-01-05T02:01:33.767Z,97820.41
2023-01-05T02:04:01.682Z,97809.06
2023-01-05T02:06:28.026Z,97812.56
2023-01-05T02:08:54.707Z,97810.22
2023-01-05T02:11:42.884Z,97804.03
2023-01-05T02:14:40.450Z,97802.41
2023-01-05T02:17:33.428Z,97798.50
2023-01-05T02:20:11.987Z,97796.97
2023-01-05T02:23:17.982Z,97788.72
2023-01-05T02:26:12.940Z,97799.63
2023-01-05T02:29:09.310Z,97795.31
2023-01-05T02:31:39.792Z,97779.66
2023-01-05T02:34:22.933Z,97772.63
2023-01-05T02:37:08.849Z,97775.00
2023-01-05T02:39:49.098Z,97772.63
2023-01-05T02:42:22.091Z,97776.56
2023-01-05T02:44:48.474Z,97764.00
2023-01-05T02:47:29.879Z,97754.19
2023-01-05T02:50:29.657Z,97760.09
2023-01-05T02:53:22.059Z,97760.41
2023-01-05T02:55:55.129Z,97760.00
2023-01-05T02:58:31.566Z,97758.41
2023-01-05T03:01:05.995Z,97776.38
2023-01-05T03:03:37.148Z,97773.25
2023-01-05T03:06:11.237Z,97776.75
2023-01-05T03:08:45.269Z,97770.88
2023-01-05T03:11:30.835Z,97768.91
2023-01-05T03:14:10.890Z,97766.94
2023-01-05T03:16:38.494Z,97759.91
2023-01-05T03:19:29.122Z,97764.25
2023-01-05T03:22:15.969Z,97772.47
2023-01-05T03:25:02.902Z,97792.91
2023-01-05T03:27:49.205Z,97774.94
2023-01-05T03:30:34.554Z,97780.84
2023-01-05T03:33:28.357Z,97778.94
2023-01-05T03:35:57.833Z,97782.75
2023-01-05T03:38:29.902Z,97786.31
2023-01-05T03:41:00.537Z,97783.59
2023-01-05T03:43:27.339Z,97788.22
2023-01-05T03:45:56.802Z,97776.47
2023-01-05T03:48:25.577Z,97778.03
2023-01-05T03:50:51.989Z,97770.19
2023-01-05T03:53:18.397Z,97760.78
2023-01-05T03:55:44.879Z,97751.38
2023-01-05T03:58:11.306Z,97741.22
2023-01-05T04:00:37.647Z,97744.31
2023-01-05T04:03:04.972Z,97740.38
2023-01-05T04:05:31.483Z,97737.19
2023-01-05T04:07:57.790Z,97725.44
2023-01-05T04:10:24.116Z,97723.84
2023-01-05T04:12:50.508Z,97710.53
2023-01-05T04:15:16.824Z,97728.97
2023-01-05T04:17:43.159Z,97728.94
2023-01-05T04:20:10.285Z,97707.41
2023-01-05T04:22:36.614Z,97728.19
2023-01-05T04:25:03.054Z,97714.91
2023-01-05T04:27:29.373Z,97730.94
2023-01-05T04:29:55.782Z,97719.25
2023-01-05T04:32:22.093Z,97734.13
2023-01-05T04:34:48.437Z,97726.38
2023-01-05T04:37:14.787Z,97731.44
2023-01-05T04:39:41.248Z,97738.97
2023-01-05T04:42:07.572Z,97731.94
2023-01-05T04:44:33.897Z,97747.59
2023-01-05T04:47:00.280Z,97740.50
2023-01-05T04:49:26.599Z,97752.22
2023-01-05T04:51:52.911Z,97756.13
2023-01-05T04:54:19.213Z,97754.19
2023-01-05T04:56:45.559Z,97770.59
2023-01-05T04:59:11.866Z,97780.47
2023-01-05T05:01:38.286Z,97773.53
2023-01-05T05:04:04.841Z,97760.97
2023-01-05T05:06:31.167Z,97760.25
2023-01-05T05:08:57.503Z,97756.28
2023-01-05T05:11:23.854Z,97735.22
2023-01-05T05:13:50.270Z,97749.25
2023-01-05T05:16:16.627Z,97740.63
2023-01-05T05:18:43.003Z,97749.63
2023-01-05T05:21:09.449Z,97754.31
2023-01-05T05:23:35.908Z,97749.97
2023-01-05T05:26:02.267Z,97757.41
2023-01-05T05:28:28.708Z,97755.81
2023-01-05T05:30:56.321Z,97748.34
2023-01-05T05:33:24.210Z,97755.38
2023-01-05T05:35:50.994Z,97762.41
2023-01-05T05:38:17.429Z,97770.97
2023-01-05T05:40:43.867Z,97774.19
2023-01-05T05:43:10.232Z,97789.47
2023-01-05T05:45:36.556Z,97784.41
2023-01-05T05:48:02.959Z,97789.50
2023-01-05T05:50:29.344Z,97793.81
2023-01-05T05:52:55.712Z,97804.75
2023-01-05T05:55:22.075Z,97803.16
2023-01-05T05:57:48.428Z,97814.16
2023-01-05T06:00:15.281Z,97807.91
2023-01-05T06:02:41.724Z,97811.84
2023-01-05T06:05:08.650Z,97812.69
2023-01-05T06:07:35.044Z,97809.63
2023-01-05T06:10:01.404Z,97812.78
2023-01-05T06:12:27.849Z,97803.84
2023-01-05T06:14:54.299Z,97811.22
2023-01-05T06:17:20.620Z,97821.06
2023-01-05T06:19:46.918Z,97824.22
2023-01-05T06:22:13.262Z,97834.81
2023-01-05T06:24:39.791Z,97838.00
2023-01-05T06:27:06.154Z,97838.00
2023-01-05T06:29:32.492Z,97840.78
2023-01-05T06:31:58.898Z,97831.78
2023-01-05T06:34:25.323Z,97845.88
2023-01-05T06:36:51.723Z,97846.31
2023-01-05T06:39:18.089Z,97859.59
2023-01-05T06:41:44.417Z,97849.06
2023-01-05T06:44:11.137Z,97848.31
2023-01-05T06:46:37.498Z,97860.00
2023-01-05T06:49:03.834Z,97872.53
2023-01-05T06:51:30.461Z,97869.38
2023-01-05T06:53:56.756Z,97865.47
2023-01-05T06:56:23.070Z,97869.41
2023-01-05T06:58:49.416Z,97880.72
2023-01-05T07:01:15.877Z,97879.94
2023-01-05T07:03:42.277Z,97890.47
2023-01-05T07:06:14.576Z,97893.63
2023-01-05T07:08:41.784Z,97894.78
2023-01-05T07:11:08.139Z,97907.28
2023-01-05T07:13:34.454Z,97906.06
2023-01-05T07:16:00.809Z,97927.97
2023-01-05T07:18:27.184Z,97913.91
2023-01-05T07:20:53.512Z,97911.22
2023-01-05T07:23:20.215Z,97919.41
2023-01-05T07:25:46.533Z,97923.31
2023-01-05T07:28:12.912Z,97920.22
2023-01-05T07:30:39.229Z,97915.91
2023-01-05T07:33:05.705Z,97906.16
2023-01-05T07:35:32.713Z,97915.13
2023-01-05T07:37:59.035Z,97914.75
2023-01-05T07:40:25.519Z,97919.78
2023-01-05T07:42:53.359Z,97929.16
2023-01-05T07:45:20.865Z,97921.78
2023-01-05T07:47:48.265Z,97942.09
2023-01-05T07:50:14.677Z,97936.19
2023-01-05T07:52:40.992Z,97930.34
2023-01-05T07:55:08.105Z,97940.06
2023-01-05T07:57:34.440Z,97947.47
2023-01-05T08:00:00.766Z,97952.94
2023-01-05T08:02:32.245Z,97961.50
2023-01-05T08:05:01.911Z,97968.53
2023-01-05T08:07:28.206Z,97969.34
2023-01-05T08:10:12.959Z,97977.16
2023-01-05T08:12:59.239Z,97963.88
2023-01-05T08:15:25.598Z,97957.59
2023-01-05T08:17:51.979Z,97949.78
2023-01-05T08:20:18.342Z,97955.63
2023-01-05T08:22:50.273Z,97958.41
2023-01-05T08:25:16.840Z,97969.38
2023-01-05T08:27:43.152Z,97974.84
2023-01-05T08:30:10.300Z,97971.72
2023-01-05T08:32:36.646Z,97976.41
2023-01-05T08:35:03.053Z,97975.63
2023-01-05T08:37:29.368Z,97977.97
2023-01-05T08:39:55.810Z,97992.03
2023-01-05T08:42:22.103Z,97986.56
2023-01-05T08:44:48.513Z,97986.63
2023-01-05T08:47:16.264Z,97980.34
2023-01-05T08:49:44.523Z,97991.66
2023-01-05T08:52:10.853Z,97998.72
2023-01-05T08:54:37.217Z,97995.22
2023-01-05T08:57:03.569Z,98010.84
2023-01-05T08:59:29.878Z,98003.00
2023-01-05T09:01:56.393Z,98017.84
2023-01-05T09:04:22.854Z,98011.19
2023-01-05T09:06:49.281Z,98014.25
2023-01-05T09:09:15.623Z,98003.75
2023-01-05T09:11:41.955Z,98018.56
2023-01-05T09:14:14.268Z,98033.03
2023-01-05T09:19:27.241Z,98031.81
2023-01-05T09:21:53.652Z,98031.06
2023-01-05T09:24:20.058Z,98032.19
2023-01-05T09:26:46.567Z,98049.00
2023-01-05T09:29:13.803Z,98054.09
2023-01-05T09:31:41.447Z,98051.75
2023-01-05T09:34:08.204Z,98067.75
2023-01-05T09:36:34.552Z,98061.50
2023-01-05T09:39:00.853Z,98062.66
2023-01-05T09:41:32.615Z,98066.94
2023-01-05T09:44:02.654Z,98068.50
2023-01-05T09:46:39.738Z,98068.56
2023-01-05T09:49:11.681Z,98074.03
2023-01-05T09:51:38.072Z,98062.25
2023-01-05T09:54:04.666Z,98070.88
2023-01-05T09:59:28.090Z,98075.53
2023-01-05T10:01:56.024Z,98056.00
2023-01-05T10:04:30.356Z,98058.75
2023-01-05T10:07:02.073Z,98064.59
2023-01-05T10:09:33.167Z,98059.13
2023-01-05T10:12:31.381Z,98056.00
2023-01-05T10:15:07.193Z,98065.38
2023-01-05T10:17:41.857Z,98056.38
2023-01-05T10:20:30.745Z,98061.47
2023-01-05T10:23:30.133Z,98064.19
2023-01-05T10:26:20.924Z,98052.88
2023-01-05T10:28:57.770Z,98050.88
2023-01-05T10:31:29.676Z,98059.06
2023-01-05T10:34:16.443Z,98052.81
2023-01-05T10:37:25.749Z,98046.53
2023-01-05T10:40:38.071Z,98036.75
2023-01-05T10:43:16.288Z,98044.19
2023-01-05T10:46:11.644Z,98050.06
2023-01-05T10:48:34.297Z,98038.31
2023-01-05T10:51:01.054Z,98043.44
2023-01-05T10:53:28.988Z,98045.00
2023-01-05T10:55:55.253Z,98038.69
2023-01-05T10:58:22.651Z,98039.41
2023-01-05T11:00:50.034Z,98037.88
2023-01-05T11:03:18.824Z,98033.53
2023-01-05T11:05:48.050Z,98025.25
2023-01-05T11:08:21.585Z,98037.78
2023-01-05T11:10:52.876Z,98029.97
2023-01-05T11:13:39.588Z,98040.13
2023-01-05T11:16:20.224Z,98032.28
2023-01-05T11:18:57.319Z,98046.38
2023-01-05T11:21:26.500Z,98046.38
2023-01-05T11:23:59.816Z,98042.50
2023-01-05T11:26:38.302Z,98043.22
2023-01-05T11:29:14.741Z,98036.91
2023-01-05T11:31:52.412Z,98035.34
2023-01-05T11:34:35.440Z,98031.81
2023-01-05T11:37:07.828Z,98023.13
2023-01-05T11:39:53.665Z,98031.00
2023-01-05T11:42:25.778Z,98034.53
2023-01-05T11:44:57.199Z,98033.34
2023-01-05T11:47:25.333Z,98032.53
2023-01-05T11:50:13.378Z,98029.09
2023-01-05T11:52:41.337Z,98025.13
2023-01-05T11:55:19.666Z,98018.78
2023-01-05T11:57:59.645Z,98017.38
2023-01-05T12:00:28.618Z,98022.00
2023-01-05T12:03:10.341Z,98032.53
2023-01-05T12:05:54.510Z,98041.56
2023-01-05T12:08:30.750Z,98031.34
2023-01-05T12:11:21.667Z,98046.25
2023-01-05T12:13:50.978Z,98046.69
2023-01-05T12:16:46.455Z,98032.22
2023-01-05T12:19:36.802Z,98037.31
2023-01-05T12:22:43.279Z,98042.38
2023-01-05T12:25:09.529Z,98037.69
2023-01-05T12:27:45.706Z,98038.47
2023-01-05T12:36:32.550Z,98057.28
2023-01-05T12:39:17.291Z,98052.59
2023-01-05T12:41:56.578Z,98059.25
2023-01-05T12:44:41.650Z,98063.94
2023-01-05T12:47:56.700Z,98065.91
2023-01-05T12:50:38.068Z,98064.34
2023-01-05T12:53:31.614Z,98072.97
2023-01-05T12:56:21.981Z,98075.31
2023-01-05T12:59:18.130Z,98060.06
2023-01-05T13:02:10.051Z,98074.19
2023-01-05T13:04:52.714Z,98065.19
2023-01-05T13:07:41.012Z,98068.34
2023-01-05T13:10:18.987Z,98066.34
2023-01-05T13:12:47.661Z,98075.38
2023-01-05T13:15:23.693Z,98069.13
2023-01-05T13:17:53.466Z,98069.91
2023-01-05T13:20:42.714Z,98073.81
2023-01-05T13:23:39.564Z,98073.03
2023-01-05T13:26:16.155Z,98072.25
2023-01-05T13:28:43.223Z,98079.28
2023-01-05T13:31:36.237Z,98076.91
2023-01-05T13:34:17.475Z,98077.72
2023-01-05T13:37:22.825Z,98078.53
2023-01-05T13:40:14.129Z,98084.34
2023-01-05T13:43:00.923Z,98074.59
2023-01-05T13:45:48.744Z,98080.50
2023-01-05T13:48:33.829Z,98078.47
2023-01-05T13:51:39.517Z,98087.88
2023-01-05T13:54:15.730Z,98083.59
2023-01-05T13:56:42.561Z,98086.72
2023-01-05T13:59:34.936Z,98087.50
2023-01-05T14:02:04.446Z,98085.94
2023-01-05T14:04:33.984Z,98084.78
2023-01-05T14:07:07.090Z,98091.81
2023-01-05T14:09:42.875Z,98095.72
2023-01-05T14:12:09.906Z,98090.34
2023-01-05T14:15:01.198Z,98095.00
2023-01-05T14:17:55.676Z,98081.78
2023-01-05T14:20:37.451Z,98090.78
2023-01-05T14:23:23.908Z,98086.50
2023-01-05T14:25:50.248Z,98088.13
2023-01-05T14:28:19.524Z,98092.81
2023-01-05T14:30:46.510Z,98096.31
2023-01-05T14:33:13.158Z,98096.72
2023-01-05T14:35:39.599Z,98099.06
2023-01-05T14:38:17.731Z,98117.00
2023-01-05T14:40:48.881Z,98113.47
2023-01-05T14:43:24.315Z,98122.88
2023-01-05T14:46:05.031Z,98125.19
2023-01-05T14:48:36.656Z,98128.72
2023-01-05T14:51:12.236Z,98133.03
2023-01-05T14:53:41.379Z,98144.34
2023-01-05T14:56:07.729Z,98134.56
2023-01-05T14:58:36.766Z,98129.50
2023-01-05T15:01:18.378Z,98145.13
2023-01-05T15:03:57.816Z,98145.91
2023-01-05T15:06:54.201Z,98144.34
2023-01-05T15:09:54.466Z,98148.22
2023-01-05T15:12:48.991Z,98152.16
2023-01-05T15:15:22.377Z,98163.50
2023-01-05T15:17:48.655Z,98163.09
2023-01-05T15:20:38.460Z,98158.44
2023-01-05T15:23:23.650Z,98165.47
2023-01-05T15:26:17.849Z,98167.41
2023-01-05T15:29:11.956Z,98174.03
2023-01-05T15:31:41.746Z,98175.22
2023-01-05T15:34:18.136Z,98169.34
2023-01-05T15:36:57.025Z,98176.41
2023-01-05T15:39:24.949Z,98167.78
2023-01-05T15:41:53.443Z,98165.47
2023-01-05T15:44:20.802Z,98165.09
2023-01-05T15:46:49.572Z,98174.06
2023-01-05T15:49:30.063Z,98179.91
2023-01-05T15:51:57.074Z,98182.28
2023-01-05T15:54:33.358Z,98184.59
2023-01-05T15:57:01.416Z,98186.97
2023-01-05T15:59:39.577Z,98180.31
2023-01-05T16:02:28.503Z,98181.88
2023-01-05T16:05:35.820Z,98194.38
2023-01-05T16:08:13.645Z,98192.41
2023-01-05T16:10:51.531Z,98189.69
2023-01-05T16:13:32.880Z,98200.63
2023-01-05T16:16:02.444Z,98192.03
2023-01-05T16:18:37.713Z,98203.75
2023-01-05T16:21:26.710Z,98201.78
2023-01-05T16:23:58.423Z,98205.31
2023-01-05T16:26:25.367Z,98206.09
2023-01-05T16:28:51.745Z,98211.97
2023-01-05T16:31:35.589Z,98204.53
2023-01-05T16:34:16.032Z,98210.03
2023-01-05T16:37:03.125Z,98203.38
2023-01-05T16:39:37.067Z,98208.47
2023-01-05T16:42:39.807Z,98206.09
2023-01-05T16:45:19.363Z,98205.31
2023-01-05T16:47:46.482Z,98218.19
2023-01-05T16:50:18.753Z,98217.03
2023-01-05T16:52:56.387Z,98225.66
2023-01-05T16:55:31.438Z,98227.97
2023-01-05T16:57:59.289Z,98232.66
2023-01-05T17:00:25.541Z,98242.03
2023-01-05T17:02:54.107Z,98238.88
2023-01-05T17:05:26.969Z,98235.00
2023-01-05T17:08:04.408Z,98241.59
2023-01-05T17:10:30.830Z,98240.44
2023-01-05T17:13:10.648Z,98243.59
2023-01-05T17:15:37.068Z,98241.63
2023-01-05T17:18:15.964Z,98242.78
2023-01-05T17:20:43.143Z,98239.66
2023-01-05T17:23:16.258Z,98236.56
2023-01-05T17:25:43.630Z,98234.19
2023-01-05T17:28:09.985Z,98240.47
2023-01-05T17:30:36.349Z,98241.25
2023-01-05T17:33:03.611Z,98249.81
2023-01-05T17:35:30.000Z,98242.00
2023-01-05T17:37:56.383Z,98240.47
2023-01-05T17:40:23.151Z,98248.66
2023-01-05T17:42:49.989Z,98243.59
2023-01-05T17:45:23.204Z,98238.50
2023-01-05T17:47:50.825Z,98238.09
2023-01-05T17:53:03.391Z,98237.34
2023-01-05T17:55:30.635Z,98242.03
2023-01-05T17:57:57.719Z,98238.13
2023-01-05T18:00:26.146Z,98234.59
2023-01-05T18:02:54.143Z,98242.41
2023-01-05T18:05:21.527Z,98248.25
2023-01-05T18:07:48.150Z,98240.47
2023-01-05T18:10:18.700Z,98238.50
2023-01-05T18:12:45.073Z,98234.97
2023-01-05T18:15:12.191Z,98227.97
2023-01-05T18:17:38.743Z,98227.94
2023-01-05T18:20:06.243Z,98236.56
2023-01-05T18:22:33.032Z,98234.59
2023-01-05T18:24:59.359Z,98228.72
2023-01-05T18:27:25.866Z,98244.72
2023-01-05T18:29:53.417Z,98237.69
2023-01-05T18:32:19.790Z,98238.88
2023-01-05T18:34:46.112Z,98232.63
2023-01-05T18:37:21.226Z,98237.31
2023-01-05T18:39:48.228Z,98242.75
2023-01-05T18:42:14.725Z,98244.69
2023-01-05T18:44:41.051Z,98241.19
2023-01-05T18:47:08.139Z,98237.97
2023-01-05T18:49:34.537Z,98230.94
2023-01-05T18:52:00.922Z,98229.38
2023-01-05T18:54:27.311Z,98230.53
2023-01-05T18:56:53.629Z,98227.75
2023-01-05T18:59:20.323Z,98231.66
2023-01-05T19:01:46.675Z,98229.31
2023-01-05T19:04:15.921Z,98230.84
2023-01-05T19:06:42.482Z,98233.94
2023-01-05T19:09:11.771Z,98227.72
2023-01-05T19:11:42.777Z,98237.84
2023-01-05T19:14:09.860Z,98243.31
2023-01-05T19:16:36.788Z,98237.84
2023-01-05T19:19:10.240Z,98236.31
2023-01-05T19:21:39.184Z,98234.00
2023-01-05T19:24:07.984Z,98240.22
2023-01-05T19:26:36.047Z,98245.69
2023-01-05T19:29:03.694Z,98249.59
2023-01-05T19:31:30.256Z,98242.59
2023-01-05T19:33:59.003Z,98249.97
2023-01-05T19:36:34.731Z,98251.94
2023-01-05T19:39:04.206Z,98249.97
2023-01-05T19:41:30.901Z,98253.88
2023-01-05T19:43:57.587Z,98251.97
2023-01-05T19:46:25.903Z,98245.28
2023-01-05T19:48:52.284Z,98248.41
2023-01-05T19:51:24.173Z,98242.56
2023-01-05T19:54:00.038Z,98243.78
2023-01-05T19:56:32.109Z,98229.31
2023-01-05T19:59:05.357Z,98231.22
2023-01-05T20:01:35.239Z,98241.41
2023-01-05T20:04:02.012Z,98233.94
2023-01-05T20:06:34.087Z,98241.75
2023-01-05T20:09:04.735Z,98235.06
2023-01-05T20:11:36.054Z,98242.47
2023-01-05T20:14:26.908Z,98230.72
2023-01-05T20:16:57.407Z,98242.03
2023-01-05T20:19:26.671Z,98234.63
2023-01-05T20:21:54.217Z,98236.19
2023-01-05T20:24:24.134Z,98240.91
2023-01-05T20:26:53.081Z,98240.91
2023-01-05T20:29:21.213Z,98245.53
2023-01-05T20:31:56.701Z,98248.69
2023-01-05T20:34:25.218Z,98249.47
2023-01-05T20:36:51.689Z,98255.34
2023-01-05T20:39:22.005Z,98251.88
2023-01-05T20:41:50.547Z,98247.53
2023-01-05T20:44:20.526Z,98243.25
2023-01-05T20:46:49.083Z,98256.53
2023-01-05T20:49:16.071Z,98245.28
2023-01-05T20:51:42.569Z,98248.81
2023-01-05T20:54:10.073Z,98247.25
2023-01-05T20:56:38.751Z,98248.78
2023-01-05T20:59:11.990Z,98254.59
2023-01-05T21:01:38.667Z,98256.56
2023-01-05T21:04:06.216Z,98248.81
2023-01-05T21:06:33.082Z,98261.22
2023-01-05T21:08:59.644Z,98260.47
2023-01-05T21:11:26.104Z,98254.22
2023-01-05T21:13:56.181Z,98260.47
2023-01-05T21:16:25.991Z,98260.06
2023-01-05T21:18:53.245Z,98254.59
2023-01-05T21:21:21.196Z,98269.81
2023-01-05T21:23:49.280Z,98268.25
2023-01-05T21:26:16.200Z,98265.13
2023-01-05T21:28:43.567Z,98259.66
2023-01-05T21:31:17.100Z,98263.19
2023-01-05T21:33:43.937Z,98258.13
2023-01-05T21:36:25.123Z,98258.53
2023-01-05T21:39:03.688Z,98251.53
2023-01-05T21:41:53.606Z,98255.81
2023-01-05T21:44:20.826Z,98254.25
2023-01-05T21:46:48.091Z,98253.50
2023-01-05T21:49:15.267Z,98251.88
2023-01-05T21:52:01.054Z,98250.38
2023-01-05T21:54:46.363Z,98255.03
2023-01-05T21:57:13.155Z,98248.41
2023-01-05T21:59:40.111Z,98249.59
2023-01-05T22:02:07.385Z,98248.03
2023-01-05T22:04:33.830Z,98251.13
2023-01-05T22:07:00.148Z,98251.88
2023-01-05T22:09:26.513Z,98251.47
2023-01-05T22:11:52.863Z,98253.06
2023-01-05T22:14:19.420Z,98247.59
2023-01-05T22:16:45.727Z,98243.69
2023-01-05T22:19:12.109Z,98247.19
2023-01-05T22:21:38.702Z,98247.19
2023-01-05T22:24:05.788Z,98256.56
2023-01-05T22:26:32.350Z,98251.88
2023-01-05T22:28:58.694Z,98249.53
2023-01-05T22:31:27.485Z,98258.84
2023-01-05T22:33:56.171Z,98259.66
2023-01-05T22:36:24.382Z,98255.38
2023-01-05T22:38:52.062Z,98259.66
2023-01-05T22:41:27.079Z,98258.84
2023-01-05T22:43:53.897Z,98254.94
2023-01-05T22:46:22.553Z,98258.84
2023-01-05T22:48:51.042Z,98258.84
2023-01-05T22:51:44.636Z,98253.78
2023-01-05T22:54:10.973Z,98255.72
2023-01-05T22:56:37.420Z,98257.28
2023-01-05T22:59:04.420Z,98258.84
2023-01-05T23:01:36.669Z,98261.53
2023-01-05T23:04:05.157Z,98258.78
2023-01-05T23:06:31.823Z,98264.25
2023-01-05T23:08:58.826Z,98246.31
2023-01-05T23:11:33.464Z,98247.09
2023-01-05T23:14:01.758Z,98248.66
2023-01-05T23:16:28.584Z,98246.31
2023-01-05T23:18:55.045Z,98242.44
2023-01-05T23:21:24.094Z,98242.84
2023-01-05T23:23:55.242Z,98242.84
2023-01-05T23:26:22.026Z,98228.41
2023-01-05T23:28:49.203Z,98233.13
2023-01-05T23:31:17.287Z,98231.94
2023-01-05T23:33:44.535Z,98232.72
2023-01-05T23:36:12.586Z,98235.84
2023-01-05T23:38:39.587Z,98226.88
2023-01-05T23:41:08.210Z,98231.53
2023-01-05T23:43:37.990Z,98228.00
2023-01-05T23:46:07.878Z,98239.25
2023-01-05T23:48:35.964Z,98218.59
2023-01-05T23:51:04.415Z,98214.75
2023-01-05T23:53:30.767Z,98223.66
2023-01-05T23:56:12.013Z,98225.22
2023-01-05T23:58:38.752Z,98205.75
